Time;durP1;ratioP1;P1;durP2;ratioP2;P2;SDS_P1;SDS_P2;PMS_P1;PMS_P2;Temp;Humidity;BMP_temperature;BMP_pressure;BME280_temperature;BME280_humidity;BME280_pressure;Samples;Min_cycle;Max_cycle;Signal;HPM_P1;HPM_P2
2022/04/15 00:01:15;;;;;;;;;15.50;15.50;;;;;16.93;63.38;99581.09;5082774;27;45317;-75
2022/04/15 00:03:41;;;;;;;;;14.75;14.75;;;;;16.93;63.21;99583.75;5094324;27;47753;-75
2022/04/15 00:06:08;;;;;;;;;16.50;16.25;;;;;16.92;63.51;99580.28;5094072;27;45405;-75
2022/04/15 00:08:35;;;;;;;;;15.25;14.50;;;;;16.92;63.55;99576.75;5093924;27;45466;-75
2022/04/15 00:11:01;;;;;;;;;17.50;16.00;;;;;16.91;63.51;99578.56;5095997;27;45389;-77
2022/04/15 00:13:29;;;;;;;;;18.25;16.50;;;;;16.89;63.93;99572.47;5095480;27;45361;-77
2022/04/15 00:15:59;;;;;;;;;17.75;16.50;;;;;16.88;63.82;99577.88;5095610;27;45239;-75
2022/04/15 00:18:25;;;;;;;;;17.50;17.00;;;;;16.82;64.08;99572.88;5093819;27;45503;-77
2022/04/15 00:20:54;;;;;;;;;19.00;16.75;;;;;16.76;63.95;99568.78;5096559;27;45403;-77
2022/04/15 00:23:23;;;;;;;;;14.50;14.50;;;;;16.74;63.86;99574.22;5095768;27;45426;-77
2022/04/15 00:25:53;;;;;;;;;16.75;16.00;;;;;16.72;63.94;99577.91;5095860;27;45490;-77
2022/04/15 00:28:19;;;;;;;;;22.50;16.75;;;;;16.68;64.38;99571.03;5095122;27;45415;-77
2022/04/15 00:30:44;;;;;;;;;21.25;16.75;;;;;16.64;64.64;99577.47;5095390;27;45610;-77
2022/04/15 00:33:10;;;;;;;;;22.50;20.25;;;;;16.62;64.55;99576.66;5081875;27;46059;-77
2022/04/15 00:35:35;;;;;;;;;20.50;15.75;;;;;16.60;64.51;99579.41;5093665;27;45474;-76
2022/04/15 00:38:01;;;;;;;;;17.75;15.50;;;;;16.57;64.68;99576.97;5093733;27;45449;-76
2022/04/15 00:40:27;;;;;;;;;20.75;18.25;;;;;16.55;64.94;99583.31;5095897;27;45441;-77
2022/04/15 00:42:52;;;;;;;;;21.00;19.50;;;;;16.50;65.25;99583.56;5087598;27;45491;-77
2022/04/15 00:45:18;;;;;;;;;20.00;19.75;;;;;16.46;65.48;99579.34;5093526;27;45405;-76
2022/04/15 00:48:11;;;;;;;;;22.50;21.75;;;;;16.40;65.49;99577.91;5084638;27;45513;-77
2022/04/15 00:50:36;;;;;;;;;21.75;19.75;;;;;16.38;65.66;99578.94;5079802;27;45571;-76
2022/04/15 00:53:08;;;;;;;;;22.25;18.50;;;;;16.31;65.85;99575.75;5086011;27;45815;-76
2022/04/15 00:55:34;;;;;;;;;19.25;17.50;;;;;16.22;65.85;99570.97;5095719;27;45294;-76
2022/04/15 00:58:02;;;;;;;;;19.50;18.50;;;;;16.17;65.86;99572.16;5086149;27;45696;-76
2022/04/15 01:00:31;;;;;;;;;23.67;22.33;;;;;16.14;66.22;99577.63;5095516;27;45517;-77
2022/04/15 01:02:58;;;;;;;;;22.50;19.75;;;;;16.11;66.58;99575.13;5086199;27;46588;-77
2022/04/15 01:05:25;;;;;;;;;17.25;16.50;;;;;16.07;66.78;99574.47;5095521;27;45449;-77
2022/04/15 01:07:55;;;;;;;;;20.75;20.75;;;;;16.03;66.88;99580.91;5094911;27;45455;-77
2022/04/15 01:10:21;;;;;;;;;15.75;15.25;;;;;16.00;66.76;99586.38;5094422;27;45356;-77
2022/04/15 01:12:53;;;;;;;;;22.25;18.00;;;;;15.98;66.93;99578.50;5091636;27;46391;-77
2022/04/15 01:15:20;;;;;;;;;21.00;16.50;;;;;15.95;67.35;99586.63;5095181;27;45368;-77
2022/04/15 01:17:46;;;;;;;;;15.75;15.25;;;;;15.92;67.12;99589.44;5084380;27;45565;-77
2022/04/15 01:20:12;;;;;;;;;15.50;14.25;;;;;15.88;67.14;99590.59;5095114;27;45315;-77
2022/04/15 01:22:43;;;;;;;;;14.75;14.25;;;;;15.84;67.53;99586.38;5092411;27;45466;-77
2022/04/15 01:25:18;;;;;;;;;17.25;16.25;;;;;15.82;67.22;99590.03;5094761;27;45458;-77
2022/04/15 01:27:46;;;;;;;;;15.75;14.75;;;;;15.80;68.24;99591.91;5093103;27;45356;-77
2022/04/15 01:30:17;;;;;;;;;19.50;18.25;;;;;15.76;68.00;99587.69;5094993;27;45453;-77
2022/04/15 01:32:44;;;;;;;;;15.50;15.50;;;;;15.70;67.86;99588.91;5091534;27;46246;-77
2022/04/15 01:35:12;;;;;;;;;17.50;16.50;;;;;15.66;68.54;99590.00;5094832;27;45407;-77
2022/04/15 01:37:39;;;;;;;;;20.25;17.50;;;;;15.60;68.47;99585.88;5093600;27;45361;-77
2022/04/15 01:40:06;;;;;;;;;19.75;18.25;;;;;15.56;68.83;99594.09;5094752;27;45455;-77
2022/04/15 01:42:33;;;;;;;;;21.75;20.25;;;;;15.49;68.91;99588.22;5087766;27;45597;-77
2022/04/15 01:44:58;;;;;;;;;14.50;14.50;;;;;15.45;68.87;99591.09;5094330;27;45435;-77
2022/04/15 01:47:24;;;;;;;;;17.75;16.75;;;;;15.42;69.12;99592.13;5094499;27;45547;-77
2022/04/15 01:49:49;;;;;;;;;21.50;18.75;;;;;15.39;69.06;99586.13;5094458;27;45518;-77
2022/04/15 01:52:15;;;;;;;;;18.50;17.50;;;;;15.37;69.28;99599.50;5092169;27;45680;-77
2022/04/15 01:54:40;;;;;;;;;19.75;17.25;;;;;15.35;69.69;99593.38;5092197;27;45385;-77
2022/04/15 01:57:06;;;;;;;;;17.00;17.00;;;;;15.33;69.79;99597.91;5090335;27;45393;-76
2022/04/15 01:59:31;;;;;;;;;18.25;18.25;;;;;15.28;69.96;99597.28;5094508;27;45233;-77
2022/04/15 02:01:57;;;;;;;;;21.00;17.00;;;;;15.24;69.98;99587.78;5089449;27;46706;-77
2022/04/15 02:04:26;;;;;;;;;23.00;20.00;;;;;15.21;70.17;99596.75;5086617;27;45557;-76
2022/04/15 02:06:52;;;;;;;;;23.00;21.00;;;;;15.20;69.90;99591.53;5091960;27;45490;-77
2022/04/15 02:09:18;;;;;;;;;18.50;17.75;;;;;15.19;69.76;99589.81;5082549;27;45482;-77
2022/04/15 02:11:45;;;;;;;;;14.25;13.75;;;;;15.19;70.17;99585.34;5091948;27;46087;-77
2022/04/15 02:14:12;;;;;;;;;19.25;16.75;;;;;15.19;70.32;99587.16;5090661;27;45438;-77
2022/04/15 02:16:38;;;;;;;;;18.50;17.50;;;;;15.19;69.75;99597.78;5094323;27;45545;-77
2022/04/15 02:19:04;;;;;;;;;19.50;17.75;;;;;15.18;70.20;99590.75;5094149;27;45349;-77
2022/04/15 02:21:29;;;;;;;;;16.25;16.00;;;;;15.17;70.06;99597.84;5093736;27;45362;-77
2022/04/15 02:23:55;;;;;;;;;17.25;15.75;;;;;15.16;70.23;99598.78;5092217;27;45455;-77
2022/04/15 02:26:20;;;;;;;;;18.75;16.75;;;;;15.17;70.07;99597.00;5098151;27;45371;-74
2022/04/15 02:28:46;;;;;;;;;22.67;21.00;;;;;15.16;70.65;99604.09;5095805;27;45470;-75
2022/04/15 02:31:11;;;;;;;;;21.67;19.67;;;;;15.13;70.76;99601.59;5097766;27;46021;-75
2022/04/15 02:33:37;;;;;;;;;19.33;19.00;;;;;15.09;71.04;99594.72;5095963;27;45479;-74
2022/04/15 02:36:02;;;;;;;;;19.33;18.33;;;;;15.07;71.18;99598.41;5098269;27;45535;-74
2022/04/15 02:38:28;;;;;;;;;18.33;16.67;;;;;15.06;71.42;99604.66;5092414;27;45482;-77
2022/04/15 02:40:54;;;;;;;;;23.67;20.00;;;;;15.05;71.76;99600.28;5097409;27;45488;-75
2022/04/15 02:43:20;;;;;;;;;25.00;21.67;;;;;15.03;71.80;99597.69;5096625;27;45618;-74
2022/04/15 02:45:46;;;;;;;;;17.50;16.25;;;;;15.02;71.57;99604.81;5089299;27;45424;-74
2022/04/15 02:48:13;;;;;;;;;19.75;18.00;;;;;14.98;71.98;99607.69;5092206;27;45400;-75
2022/04/15 02:50:39;;;;;;;;;19.00;18.25;;;;;14.92;71.90;99608.84;5097428;27;46106;-75
2022/04/15 02:53:05;;;;;;;;;20.33;20.33;;;;;14.85;72.12;99604.78;5084954;27;45481;-75
2022/04/15 02:55:30;;;;;;;;;21.67;19.33;;;;;14.82;72.72;99604.94;5096232;27;45507;-75
2022/04/15 02:57:56;;;;;;;;;21.67;19.67;;;;;14.81;72.55;99607.66;5086489;27;45178;-75
2022/04/15 03:00:21;;;;;;;;;22.00;21.00;;;;;14.81;72.86;99610.31;5095851;27;47042;-75
2022/04/15 03:02:47;;;;;;;;;22.00;20.67;;;;;14.78;72.79;99611.31;5087177;27;45459;-74
2022/04/15 03:05:12;;;;;;;;;18.00;17.33;;;;;14.76;72.35;99610.53;5097676;27;45612;-75
2022/04/15 03:07:39;;;;;;;;;22.67;20.67;;;;;14.75;72.89;99607.97;5095475;27;45481;-75
2022/04/15 03:10:08;;;;;;;;;19.00;18.00;;;;;14.76;72.14;99612.34;5096797;27;45454;-75
2022/04/15 03:12:34;;;;;;;;;19.67;19.67;;;;;14.74;72.35;99611.56;5095141;27;45368;-75
2022/04/15 03:15:00;;;;;;;;;17.50;16.50;;;;;14.75;71.97;99610.63;5097293;27;45359;-75
2022/04/15 03:17:26;;;;;;;;;20.75;18.00;;;;;14.72;72.10;99609.00;5092670;27;45555;-75
2022/04/15 03:19:51;;;;;;;;;22.33;21.00;;;;;14.71;72.51;99609.94;5097201;27;46363;-75
2022/04/15 03:22:17;;;;;;;;;22.33;21.33;;;;;14.69;72.64;99616.25;5094451;27;45534;-75
2022/04/15 03:24:42;;;;;;;;;21.75;20.75;;;;;14.65;72.86;99613.72;5096804;27;45464;-77
2022/04/15 03:27:08;;;;;;;;;17.67;17.67;;;;;14.59;73.24;99616.66;5094681;27;45418;-75
2022/04/15 03:29:34;;;;;;;;;22.33;22.00;;;;;14.56;73.14;99623.94;5096630;27;45461;-77
2022/04/15 03:31:59;;;;;;;;;22.00;20.33;;;;;14.53;73.69;99629.41;5095025;27;45521;-77
2022/04/15 03:34:25;;;;;;;;;21.25;19.00;;;;;14.48;73.70;99626.97;5096733;27;45418;-77
2022/04/15 03:36:50;;;;;;;;;19.67;18.00;;;;;14.48;74.13;99628.75;5095990;27;45401;-76
2022/04/15 03:39:15;;;;;;;;;22.00;19.33;;;;;14.46;74.32;99631.47;5096618;27;45435;-74
2022/04/15 03:41:41;;;;;;;;;23.33;23.33;;;;;14.45;74.54;99634.19;5096301;27;45577;-76
2022/04/15 03:44:06;;;;;;;;;23.50;21.25;;;;;14.44;74.60;99633.34;5077204;27;45374;-76
2022/04/15 03:46:32;;;;;;;;;21.00;18.33;;;;;14.44;74.38;99641.28;5090189;27;45354;-75
2022/04/15 03:48:57;;;;;;;;;19.33;19.33;;;;;14.45;74.59;99634.19;5089205;27;45500;-77
2022/04/15 03:51:23;;;;;;;;;21.67;20.67;;;;;14.46;73.92;99635.91;5095438;27;45439;-77
2022/04/15 03:53:48;;;;;;;;;23.00;19.67;;;;;14.46;74.34;99636.78;5095903;27;45580;-75
2022/04/15 03:56:14;;;;;;;;;22.00;19.33;;;;;14.47;74.57;99641.16;5095611;27;45565;-77
2022/04/15 03:58:39;;;;;;;;;24.00;22.67;;;;;14.48;74.26;99644.66;5094622;27;45929;-77
2022/04/15 04:01:05;;;;;;;;;20.00;18.67;;;;;14.49;74.42;99641.09;5096335;27;45397;-77
2022/04/15 04:03:30;;;;;;;;;20.67;20.00;;;;;14.49;74.21;99644.59;5092615;27;45317;-77
2022/04/15 04:05:56;;;;;;;;;21.00;21.00;;;;;14.50;74.62;99648.09;5094091;27;45516;-77
2022/04/15 04:08:21;;;;;;;;;22.33;20.33;;;;;14.48;74.23;99644.66;5094124;27;47065;-77
2022/04/15 04:10:46;;;;;;;;;18.67;17.33;;;;;14.48;74.14;99647.31;5094694;27;45577;-74
2022/04/15 04:13:12;;;;;;;;;18.00;17.67;;;;;14.48;74.41;99653.47;5096261;27;45427;-75
2022/04/15 04:15:37;;;;;;;;;18.67;18.67;;;;;14.47;74.58;99654.41;5094004;27;45413;-77
2022/04/15 04:18:03;;;;;;;;;18.67;18.67;;;;;14.47;74.36;99659.72;5092083;27;45548;-75
2022/04/15 04:20:29;;;;;;;;;25.67;24.67;;;;;14.45;74.51;99655.41;5093790;27;45383;-75
2022/04/15 04:22:54;;;;;;;;;24.00;21.67;;;;;14.45;74.50;99660.72;5091786;27;45430;-75
2022/04/15 04:25:20;;;;;;;;;22.00;19.33;;;;;14.43;74.38;99663.44;5093247;27;45423;-74
2022/04/15 04:27:46;;;;;;;;;23.67;23.00;;;;;14.42;74.55;99658.22;5091824;27;45569;-74
2022/04/15 04:30:13;;;;;;;;;18.67;18.67;;;;;14.42;74.32;99656.41;5095844;27;45362;-74
2022/04/15 04:32:39;;;;;;;;;26.33;23.67;;;;;14.39;74.65;99668.97;5085464;27;45322;-75
2022/04/15 04:35:06;;;;;;;;;21.67;19.67;;;;;14.33;74.57;99668.31;5090735;27;45600;-74
2022/04/15 04:37:32;;;;;;;;;24.00;22.00;;;;;14.29;74.90;99663.19;5092804;27;45438;-74
2022/04/15 04:39:58;;;;;;;;;25.00;24.67;;;;;14.27;74.88;99671.22;5095386;27;45582;-75
2022/04/15 04:42:24;;;;;;;;;21.75;19.50;;;;;14.21;75.46;99671.53;5090678;27;45368;-75
2022/04/15 04:44:51;;;;;;;;;27.00;26.00;;;;;14.15;75.17;99669.16;5091259;27;45598;-75
2022/04/15 04:47:18;;;;;;;;;24.33;23.00;;;;;14.07;75.33;99668.66;5093142;27;46942;-75
2022/04/15 04:49:44;;;;;;;;;24.00;22.00;;;;;14.01;75.81;99670.72;5095383;27;45318;-75
2022/04/15 04:52:10;;;;;;;;;27.67;26.67;;;;;13.92;75.31;99669.31;5092294;27;45604;-75
2022/04/15 04:54:35;;;;;;;;;23.33;21.00;;;;;13.87;75.67;99679.28;5094115;27;45358;-75
2022/04/15 04:57:01;;;;;;;;;22.33;22.00;;;;;13.81;75.55;99671.59;5094749;27;46186;-75
2022/04/15 04:59:28;;;;;;;;;21.67;21.00;;;;;13.78;75.95;99677.88;5088414;27;45430;-75
2022/04/15 05:01:54;;;;;;;;;21.67;21.33;;;;;13.76;76.06;99681.53;5092168;27;45371;-75
2022/04/15 05:04:20;;;;;;;;;24.33;21.33;;;;;13.74;76.32;99678.13;5086620;27;45451;-75
2022/04/15 05:06:45;;;;;;;;;24.33;23.00;;;;;13.72;76.20;99685.28;5080404;27;45436;-75
2022/04/15 05:09:10;;;;;;;;;18.75;18.75;;;;;13.71;76.13;99679.09;5094832;27;45392;-75
2022/04/15 05:11:36;;;;;;;;;24.33;21.00;;;;;13.72;76.35;99686.13;5095034;27;45461;-75
2022/04/15 05:14:02;;;;;;;;;16.67;16.67;;;;;13.74;76.01;99691.38;5086688;27;45511;-75
2022/04/15 05:16:30;;;;;;;;;19.33;18.67;;;;;13.75;76.22;99690.41;5082114;27;46499;-75
2022/04/15 05:18:56;;;;;;;;;22.00;19.00;;;;;13.77;76.48;99685.91;5093973;27;45439;-75
2022/04/15 05:21:21;;;;;;;;;22.67;22.67;;;;;13.78;76.50;99699.09;5095426;27;45465;-75
2022/04/15 05:23:47;;;;;;;;;18.00;17.00;;;;;13.80;76.27;99696.38;5086533;27;45590;-77
2022/04/15 05:26:13;;;;;;;;;24.33;22.33;;;;;13.83;76.39;99696.25;5094905;27;46318;-74
2022/04/15 05:28:38;;;;;;;;;30.67;26.00;;;;;13.85;76.77;99702.34;5090050;27;45399;-77
2022/04/15 05:31:04;;;;;;;;;23.00;21.33;;;;;13.86;76.45;99690.81;5094227;27;45310;-77
2022/04/15 05:33:30;;;;;;;;;27.33;22.67;;;;;13.90;76.28;99700.38;5088468;27;45580;-77
2022/04/15 05:35:56;;;;;;;;;26.67;23.00;;;;;13.94;76.28;99705.44;5092479;27;46936;-77
2022/04/15 05:38:21;;;;;;;;;25.00;24.00;;;;;14.00;76.93;99714.06;5088555;27;45557;-77
2022/04/15 05:40:47;;;;;;;;;29.00;25.33;;;;;14.06;76.51;99711.13;5090097;27;45537;-77
2022/04/15 05:43:12;;;;;;;;;25.33;21.67;;;;;14.09;76.33;99711.84;5091134;27;45495;-77
2022/04/15 05:45:38;;;;;;;;;25.00;22.67;;;;;14.16;76.35;99712.44;5093169;27;45432;-77
2022/04/15 05:48:04;;;;;;;;;22.67;22.67;;;;;14.21;76.20;99721.06;5087878;27;45407;-77
2022/04/15 05:50:29;;;;;;;;;23.67;22.33;;;;;14.25;76.04;99723.47;5093939;27;45404;-77
2022/04/15 05:52:54;;;;;;;;;26.33;25.00;;;;;14.33;76.10;99728.44;5085030;27;45407;-77
2022/04/15 05:55:20;;;;;;;;;28.00;24.33;;;;;14.41;75.76;99730.78;5090014;27;46459;-77
2022/04/15 05:57:46;;;;;;;;;24.67;23.00;;;;;14.46;75.68;99726.97;5085881;27;45490;-75
2022/04/15 06:00:13;;;;;;;;;28.33;27.00;;;;;14.54;75.40;99729.28;5097221;27;45543;-78
2022/04/15 06:02:39;;;;;;;;;26.00;25.00;;;;;14.61;74.97;99725.41;5092355;27;45504;-74
2022/04/15 06:05:05;;;;;;;;;29.67;29.67;;;;;14.70;74.86;99729.44;5095781;27;46785;-75
2022/04/15 06:07:31;;;;;;;;;30.67;29.33;;;;;14.74;74.67;99731.88;5092859;27;45497;-75
2022/04/15 06:09:58;;;;;;;;;32.67;29.00;;;;;14.79;74.68;99737.81;5094316;27;45446;-75
2022/04/15 06:12:54;;;;;;;;;33.33;30.00;;;;;14.82;74.10;99732.34;5092746;27;45436;-76
2022/04/15 06:15:17;;;;;;;;;30.33;27.33;;;;;14.87;74.13;99734.81;5096549;27;45426;-75
2022/04/15 06:17:43;;;;;;;;;42.67;33.00;;;;;14.90;73.92;99739.97;5087088;27;45352;-77
2022/04/15 06:20:09;;;;;;;;;32.33;29.67;;;;;14.94;74.02;99733.56;5097376;27;45419;-75
2022/04/15 06:22:35;;;;;;;;;31.33;29.67;;;;;15.01;73.22;99735.00;5091875;27;45203;-75
2022/04/15 06:25:00;;;;;;;;;28.00;24.33;;;;;15.04;73.60;99734.84;5080940;27;45504;-75
2022/04/15 06:27:26;;;;;;;;;36.67;31.67;;;;;15.09;73.57;99731.94;5088391;27;45438;-75
2022/04/15 06:29:51;;;;;;;;;39.33;33.00;;;;;15.14;73.65;99733.47;5096529;27;45491;-76
2022/04/15 06:32:17;;;;;;;;;33.00;30.67;;;;;15.20;73.23;99738.47;5091325;27;45601;-75
2022/04/15 06:34:42;;;;;;;;;31.67;29.67;;;;;15.27;73.42;99731.91;5087429;27;45473;-64
2022/04/15 06:37:08;;;;;;;;;34.00;29.33;;;;;15.34;72.88;99735.13;5096001;27;45477;-64
2022/04/15 06:39:33;;;;;;;;;32.00;30.00;;;;;15.35;72.63;99731.53;5090722;27;45855;-64
2022/04/15 06:41:59;;;;;;;;;33.00;29.67;;;;;15.35;72.68;99732.41;5093354;27;45468;-65
2022/04/15 06:44:24;;;;;;;;;29.33;28.33;;;;;15.38;72.54;99730.53;5091424;27;46416;-65
2022/04/15 06:46:50;;;;;;;;;19.33;16.00;;;;;15.38;72.50;99730.53;5094071;27;45463;-65
2022/04/15 06:49:15;;;;;;;;;28.67;27.33;;;;;15.40;72.39;99736.63;5088067;27;45413;-64
2022/04/15 06:51:40;;;;;;;;;28.00;27.33;;;;;15.43;72.62;99739.13;5095982;27;45557;-64
2022/04/15 06:54:06;;;;;;;;;28.33;27.67;;;;;15.46;72.32;99739.81;5091881;27;45461;-64
2022/04/15 06:56:32;;;;;;;;;29.67;28.00;;;;;15.51;72.45;99737.81;5093542;27;45482;-64
2022/04/15 06:58:57;;;;;;;;;30.33;29.67;;;;;15.54;72.28;99737.66;5091549;27;45516;-67
2022/04/15 07:01:24;;;;;;;;;27.00;26.33;;;;;15.58;72.18;99733.94;5096018;27;45515;-65
2022/04/15 07:03:50;;;;;;;;;27.67;26.67;;;;;15.65;72.05;99726.50;5090542;27;45524;-64
2022/04/15 07:06:15;;;;;;;;;30.33;27.67;;;;;15.73;72.05;99737.63;5095940;27;45327;-64
2022/04/15 07:08:41;;;;;;;;;29.33;26.67;;;;;15.82;71.74;99738.94;5093649;27;45352;-64
2022/04/15 07:11:06;;;;;;;;;34.33;31.33;;;;;15.86;71.21;99738.69;5094692;27;45471;-66
2022/04/15 07:13:31;;;;;;;;;32.67;28.67;;;;;15.92;71.02;99730.38;5096002;27;45626;-66
2022/04/15 07:15:57;;;;;;;;;38.67;33.67;;;;;15.97;70.85;99727.50;5096406;27;45492;-66
2022/04/15 07:18:22;;;;;;;;;39.67;34.67;;;;;16.01;70.57;99732.59;5090428;27;45348;-65
2022/04/15 07:20:48;;;;;;;;;38.00;34.67;;;;;16.07;70.43;99735.88;5092946;27;45285;-65
2022/04/15 07:23:13;;;;;;;;;36.67;34.00;;;;;16.10;70.50;99727.69;5084246;27;45492;-65
2022/04/15 07:25:39;;;;;;;;;36.00;34.33;;;;;16.17;70.31;99732.63;5091407;27;45515;-63
2022/04/15 07:28:04;;;;;;;;;36.00;32.00;;;;;16.22;69.53;99727.94;5091147;27;45359;-66
2022/04/15 07:30:30;;;;;;;;;43.67;34.67;;;;;16.25;69.77;99729.56;5091138;27;45671;-64
2022/04/15 07:32:55;;;;;;;;;40.00;34.33;;;;;16.26;69.42;99724.13;5087810;27;46323;-64
2022/04/15 07:35:21;;;;;;;;;35.67;33.33;;;;;16.26;69.42;99718.81;5092570;27;45405;-64
2022/04/15 07:37:46;;;;;;;;;27.00;25.67;;;;;16.28;69.31;99716.94;5091750;27;45427;-64
2022/04/15 07:40:12;;;;;;;;;38.00;31.00;;;;;16.32;69.58;99721.16;5092127;27;45557;-64
2022/04/15 07:42:38;;;;;;;;;36.33;33.00;;;;;16.37;69.32;99704.97;5088373;27;45411;-64
2022/04/15 07:45:05;;;;;;;;;30.33;30.33;;;;;16.46;68.73;99708.91;5089948;27;45581;-65
2022/04/15 07:47:31;;;;;;;;;44.33;36.00;;;;;16.51;68.97;99706.84;5088750;27;45215;-65
2022/04/15 07:49:56;;;;;;;;;8.00;4.67;;;;;16.57;68.57;99711.84;5091615;27;45373;-65
2022/04/15 07:52:21;;;;;;;;;31.33;29.33;;;;;16.59;68.54;99708.13;5093803;27;46420;-66
2022/04/15 07:54:48;;;;;;;;;28.00;26.67;;;;;16.61;68.58;99706.25;5089637;27;45465;-65
2022/04/15 07:57:14;;;;;;;;;28.50;25.25;;;;;16.63;68.59;99709.72;5078723;27;45430;-65
2022/04/15 07:59:39;;;;;;;;;27.33;23.33;;;;;16.65;68.33;99707.84;5090138;27;45427;-65
2022/04/15 08:02:06;;;;;;;;;26.67;24.00;;;;;16.68;68.21;99704.16;5092577;27;45816;-65
2022/04/15 08:04:34;;;;;;;;;24.67;24.33;;;;;16.72;67.95;99711.91;5089636;27;45391;-65
2022/04/15 08:07:00;;;;;;;;;26.75;24.75;;;;;16.76;67.75;99698.41;5092441;27;45537;-66
2022/04/15 08:09:26;;;;;;;;;26.50;22.00;;;;;16.79;67.45;99698.22;5092196;27;45277;-64
2022/04/15 08:11:54;;;;;;;;;26.00;23.00;;;;;16.82;67.30;99700.72;5093733;27;45415;-65
2022/04/15 08:14:20;;;;;;;;;26.00;25.25;;;;;16.86;67.16;99705.78;5091337;27;45451;-65
2022/04/15 08:16:45;;;;;;;;;24.50;18.75;;;;;16.93;66.91;99691.16;5095904;27;45558;-65
2022/04/15 08:19:11;;;;;;;;;29.00;25.00;;;;;17.00;66.98;99692.53;5093172;27;45427;-65
2022/04/15 08:21:36;;;;;;;;;28.25;27.00;;;;;17.06;66.45;99696.66;5093873;27;45541;-64
2022/04/15 08:24:02;;;;;;;;;25.33;22.00;;;;;17.13;67.05;99698.00;5093385;27;45447;-64
2022/04/15 08:26:27;;;;;;;;;33.67;28.00;;;;;17.16;66.77;99700.50;5095617;27;45505;-64
2022/04/15 08:28:53;;;;;;;;;35.00;29.00;;;;;17.22;66.42;99699.31;5084875;27;45504;-63
2022/04/15 08:31:18;;;;;;;;;27.33;25.67;;;;;17.28;66.29;99697.13;5095751;27;45969;-65
2022/04/15 08:33:44;;;;;;;;;24.67;24.67;;;;;17.32;66.41;99697.81;5081767;27;45364;-64
2022/04/15 08:36:09;;;;;;;;;30.33;27.33;;;;;17.37;66.25;99690.41;5095556;27;45380;-65
2022/04/15 08:38:35;;;;;;;;;31.33;29.00;;;;;17.41;65.90;99691.97;5084098;27;45562;-65
2022/04/15 08:41:01;;;;;;;;;30.33;30.00;;;;;17.47;65.85;99686.25;5094326;27;45674;-64
2022/04/15 08:43:29;;;;;;;;;29.33;25.33;;;;;17.53;65.54;99693.88;5087127;27;45440;-64
2022/04/15 08:45:55;;;;;;;;;25.75;24.25;;;;;17.59;65.36;99688.19;5095268;27;45437;-64
2022/04/15 08:48:21;;;;;;;;;28.75;25.50;;;;;17.63;65.71;99695.03;5089555;27;45619;-64
2022/04/15 08:50:47;;;;;;;;;27.33;25.00;;;;;17.67;65.00;99688.63;5094997;27;46257;-65
2022/04/15 08:53:14;;;;;;;;;26.00;25.33;;;;;17.72;65.17;99693.69;5085618;27;45432;-64
2022/04/15 08:55:40;;;;;;;;;26.00;24.00;;;;;17.78;65.11;99696.81;5095201;27;45447;-65
2022/04/15 08:58:05;;;;;;;;;27.67;27.00;;;;;17.87;64.64;99694.56;5087900;27;45508;-65
2022/04/15 09:00:31;;;;;;;;;29.25;26.25;;;;;17.94;64.31;99695.88;5093393;27;46722;-64
2022/04/15 09:02:56;;;;;;;;;25.25;24.50;;;;;18.02;64.29;99689.16;5094311;27;45406;-65
2022/04/15 09:05:30;;;;;;;;;29.67;24.33;;;;;18.09;64.39;99690.50;5095187;27;45360;-64
2022/04/15 09:08:11;;;;;;;;;32.67;29.67;;;;;18.16;64.12;99687.44;5071392;27;45439;-64
2022/04/15 09:10:40;;;;;;;;;35.67;26.67;;;;;18.19;63.74;99696.09;5086903;27;46272;-65
2022/04/15 09:13:07;;;;;;;;;25.75;24.25;;;;;18.20;63.65;99697.81;5088348;27;45398;-65
2022/04/15 09:15:33;;;;;;;;;29.25;25.25;;;;;18.21;63.64;99690.69;5093253;27;45436;-65
2022/04/15 09:18:00;;;;;;;;;27.75;24.75;;;;;18.20;63.91;99691.63;5089724;27;45473;-65
2022/04/15 09:20:33;;;;;;;;;26.50;25.50;;;;;18.23;63.92;99678.09;5092998;27;46573;-65
2022/04/15 09:23:08;;;;;;;;;27.00;26.33;;;;;18.29;63.13;99683.88;5090830;27;45450;-65
2022/04/15 09:25:35;;;;;;;;;31.25;27.75;;;;;18.35;63.09;99685.31;5094639;27;45430;-65
2022/04/15 09:28:01;;;;;;;;;24.75;23.00;;;;;18.38;63.04;99677.13;5094134;27;45490;-65
2022/04/15 09:30:34;;;;;;;;;18.00;16.00;;;;;18.43;62.86;99683.88;5094447;27;45795;-66
2022/04/15 09:33:01;;;;;;;;;23.75;20.50;;;;;18.49;62.81;99677.28;5096044;27;45481;-65
2022/04/15 09:35:28;;;;;;;;;20.50;20.00;;;;;18.56;62.40;99675.97;5096649;27;45438;-66
2022/04/15 09:37:53;;;;;;;;;17.50;17.25;;;;;18.63;61.53;99676.44;5093172;27;45382;-64
2022/04/15 09:40:25;;;;;;;;;19.25;17.75;;;;;18.70;62.32;99675.09;5090909;27;46063;-66
2022/04/15 09:42:52;;;;;;;;;22.75;22.50;;;;;18.78;62.00;99665.63;5083807;27;45483;-66
2022/04/15 09:45:23;;;;;;;;;15.25;14.50;;;;;18.87;61.62;99661.50;5096499;27;45444;-66
2022/04/15 09:48:01;;;;;;;;;19.50;19.50;;;;;18.97;59.81;99656.41;5088629;27;45416;-65
2022/04/15 09:50:29;;;;;;;;;20.25;19.25;;;;;18.97;59.89;99661.75;5097468;27;45486;-66
2022/04/15 09:53:07;;;;;;;;;18.00;16.25;;;;;18.99;60.09;99651.81;5092310;27;45481;-66
2022/04/15 09:55:33;;;;;;;;;18.00;16.50;;;;;19.05;59.71;99659.44;5093197;27;45241;-66
2022/04/15 09:58:07;;;;;;;;;24.00;20.50;;;;;19.08;59.49;99660.09;5092295;27;45572;-66
2022/04/15 10:00:36;;;;;;;;;21.75;21.25;;;;;19.11;59.23;99649.19;5097857;27;45653;-65
2022/04/15 10:03:05;;;;;;;;;22.50;21.25;;;;;19.15;59.52;99649.84;5088649;27;45426;-66
2022/04/15 10:05:31;;;;;;;;;23.75;21.00;;;;;19.23;59.38;99646.66;5093355;27;45395;-66
2022/04/15 10:07:57;;;;;;;;;18.50;16.75;;;;;19.32;59.01;99656.72;5097420;27;45590;-67
2022/04/15 10:10:24;;;;;;;;;19.50;18.50;;;;;19.40;58.29;99649.91;5087275;27;45497;-65
2022/04/15 10:12:52;;;;;;;;;17.50;17.25;;;;;19.46;58.26;99641.47;5086496;27;45611;-66
2022/04/15 10:15:18;;;;;;;;;24.00;22.25;;;;;19.56;57.50;99648.91;5097626;27;45452;-66
2022/04/15 10:17:44;;;;;;;;;18.50;18.25;;;;;19.64;57.24;99638.53;5092696;27;45485;-64
2022/04/15 10:20:09;;;;;;;;;18.25;16.50;;;;;19.71;57.59;99638.00;5096849;27;46329;-66
2022/04/15 10:22:38;;;;;;;;;18.00;15.25;;;;;19.78;57.61;99633.06;5095604;27;45442;-66
2022/04/15 10:25:07;;;;;;;;;16.75;16.50;;;;;19.85;57.28;99621.84;5088923;27;45463;-66
2022/04/15 10:27:33;;;;;;;;;18.00;17.25;;;;;19.96;56.50;99630.91;5095232;27;45529;-66
2022/04/15 10:30:06;;;;;;;;;21.00;20.00;;;;;20.03;56.24;99627.72;5089758;27;45452;-66
2022/04/15 10:32:59;;;;;;;;;20.50;20.00;;;;;20.08;55.69;99617.53;5091785;27;45501;-66
2022/04/15 10:35:32;;;;;;;;;18.75;18.75;;;;;20.13;55.24;99610.03;5093643;27;45438;-66
2022/04/15 10:38:03;;;;;;;;;22.50;19.50;;;;;20.20;55.55;99615.81;5094351;27;45415;-66
2022/04/15 10:40:33;;;;;;;;;17.75;15.50;;;;;20.27;55.08;99611.72;5097335;27;46443;-66
2022/04/15 10:43:21;;;;;;;;;18.50;16.75;;;;;20.31;56.05;99605.16;5089018;27;45463;-66
2022/04/15 10:45:48;;;;;;;;;19.50;17.75;;;;;20.39;55.18;99597.47;5085430;27;45427;-66
2022/04/15 10:48:13;;;;;;;;;17.50;17.25;;;;;20.49;54.89;99592.28;5086591;27;45440;-66
2022/04/15 10:50:40;;;;;;;;;17.00;16.75;;;;;20.59;55.24;99585.31;5096806;27;45300;-66
2022/04/15 10:53:35;;;;;;;;;20.25;16.75;;;;;20.72;54.25;99582.56;5090078;27;45346;-66
2022/04/15 10:56:08;;;;;;;;;20.75;19.75;;;;;20.82;54.67;99576.41;5087712;27;45340;-66
2022/04/15 11:02:01;;;;;;;;;17.75;17.50;;;;;21.06;54.72;99581.75;5060502;27;46143;-66
2022/04/15 11:04:35;;;;;;;;;14.50;14.50;;;;;21.13;54.05;99580.28;5096992;27;45426;-66
2022/04/15 11:07:24;;;;;;;;;21.75;19.75;;;;;21.18;54.20;99586.16;5097626;27;45302;-65
2022/04/15 11:09:50;;;;;;;;;24.00;22.50;;;;;21.19;53.21;99582.53;5096783;27;45540;-65
2022/04/15 11:12:42;;;;;;;;;19.00;16.50;;;;;21.21;53.08;99575.25;5096761;27;45510;-65
2022/04/15 11:15:08;;;;;;;;;19.25;18.00;;;;;21.28;53.65;99561.38;5096526;27;45469;-65
2022/04/15 11:17:48;;;;;;;;;20.50;19.75;;;;;21.40;53.41;99568.47;5096470;27;45511;-65
2022/04/15 11:20:14;;;;;;;;;24.75;21.75;;;;;21.49;52.63;99573.09;5096904;27;45561;-65